createdAt,value
2023-02-16T00:00:51.592Z,99.90
2023-02-16T00:01:53.207Z,99.90
2023-02-16T00:02:55.326Z,99.90
2023-02-16T00:03:57.993Z,99.90
2023-02-16T00:04:59.399Z,99.90
2023-02-16T00:06:01.035Z,99.90
2023-02-16T00:07:02.591Z,99.90
2023-02-16T00:08:04.065Z,99.90
2023-02-16T00:09:05.559Z,99.90
2023-02-16T00:10:07.278Z,99.90
2023-02-16T00:11:38.598Z,99.90
2023-02-16T00:12:58.795Z,99.90
2023-02-16T00:14:00.861Z,99.90
2023-02-16T00:15:11.385Z,99.90
2023-02-16T00:16:24.027Z,99.90
2023-02-16T00:17:25.478Z,99.90
2023-02-16T00:18:26.887Z,99.90
2023-02-16T00:19:39.227Z,99.90
2023-02-16T00:20:40.661Z,99.90
2023-02-16T00:21:42.393Z,99.90
2023-02-16T00:22:44.301Z,99.90
2023-02-16T00:23:45.943Z,99.90
2023-02-16T00:24:47.566Z,99.90
2023-02-16T00:25:48.978Z,99.90
2023-02-16T00:26:50.865Z,99.90
2023-02-16T00:27:52.528Z,99.90
2023-02-16T00:28:58.561Z,99.90
2023-02-16T00:30:00.708Z,99.90
2023-02-16T00:31:02.674Z,99.90
2023-02-16T00:32:06.127Z,99.90
2023-02-16T00:33:17.993Z,99.90
2023-02-16T00:34:45.824Z,99.90
2023-02-16T00:35:47.890Z,99.90
2023-02-16T00:36:50.900Z,99.90
2023-02-16T00:37:52.564Z,99.90
2023-02-16T00:38:53.985Z,99.90
2023-02-16T00:39:55.468Z,99.90
2023-02-16T00:40:56.882Z,99.90
2023-02-16T00:42:01.853Z,99.90
2023-02-16T00:43:03.333Z,99.90
2023-02-16T00:44:07.019Z,99.90
2023-02-16T00:45:17.113Z,99.90
2023-02-16T00:46:18.826Z,99.90
2023-02-16T00:47:38.234Z,99.90
2023-02-16T00:48:39.708Z,99.90
2023-02-16T00:49:41.342Z,99.90
2023-02-16T00:50:44.200Z,99.90
2023-02-16T00:51:46.027Z,99.90
2023-02-16T00:52:48.530Z,99.90
2023-02-16T00:53:50.421Z,99.90
2023-02-16T00:54:51.805Z,99.90
2023-02-16T00:55:53.824Z,99.90
2023-02-16T00:56:55.417Z,99.90
2023-02-16T00:57:59.683Z,99.90
2023-02-16T00:59:20.692Z,99.90
2023-02-16T01:00:30.168Z,99.90
2023-02-16T01:01:33.382Z,99.90
2023-02-16T01:02:35.070Z,99.90
2023-02-16T01:03:37.732Z,99.90
2023-02-16T01:04:39.625Z,99.90
2023-02-16T01:05:42.620Z,99.90
2023-02-16T01:07:02.704Z,99.90
2023-02-16T01:08:30.104Z,99.90
2023-02-16T01:09:50.187Z,99.90
2023-02-16T01:11:04.448Z,99.90
2023-02-16T01:12:17.263Z,99.90
2023-02-16T01:13:19.003Z,99.90
2023-02-16T01:14:20.615Z,99.90
2023-02-16T01:15:25.275Z,99.90
2023-02-16T01:16:39.929Z,99.90
2023-02-16T01:17:41.386Z,99.90
2023-02-16T01:18:43.151Z,99.90
2023-02-16T01:19:47.153Z,99.90
2023-02-16T01:20:50.601Z,99.90
2023-02-16T01:21:52.002Z,99.90
2023-02-16T01:22:53.807Z,99.90
2023-02-16T01:23:55.277Z,99.90
2023-02-16T01:24:56.810Z,99.90
2023-02-16T01:25:59.806Z,99.90
2023-02-16T01:27:01.369Z,99.90
2023-02-16T01:28:03.510Z,99.90
2023-02-16T01:29:05.079Z,99.90
2023-02-16T01:30:13.533Z,99.90
2023-02-16T01:31:16.101Z,99.90
2023-02-16T01:32:17.893Z,99.90
2023-02-16T01:33:20.543Z,99.90
2023-02-16T01:34:22.035Z,99.90
2023-02-16T01:35:33.193Z,99.90
2023-02-16T01:36:40.653Z,99.90
2023-02-16T01:37:42.031Z,99.90
2023-02-16T01:38:43.454Z,99.90
2023-02-16T01:39:44.843Z,99.90
2023-02-16T01:41:22.615Z,99.90
2023-02-16T01:42:51.875Z,99.90
2023-02-16T01:44:03.318Z,99.90
2023-02-16T01:45:13.154Z,99.90
2023-02-16T01:46:21.303Z,99.90
2023-02-16T01:47:30.630Z,99.90
2023-02-16T01:48:32.972Z,99.90
2023-02-16T01:49:34.610Z,99.90
2023-02-16T01:51:11.388Z,99.90
2023-02-16T01:52:34.530Z,99.90
2023-02-16T01:54:07.406Z,99.90
2023-02-16T01:55:17.657Z,99.90
2023-02-16T01:56:48.065Z,99.90
2023-02-16T01:58:06.763Z,99.90
2023-02-16T01:59:24.788Z,99.90
2023-02-16T02:00:50.789Z,99.90
2023-02-16T02:02:04.638Z,99.90
2023-02-16T02:03:31.501Z,99.90
2023-02-16T02:05:01.353Z,99.90
2023-02-16T02:06:02.855Z,99.90
2023-02-16T02:07:04.724Z,99.90
2023-02-16T02:08:06.278Z,99.90
2023-02-16T02:09:14.003Z,99.90
2023-02-16T02:10:46.629Z,99.90
2023-02-16T02:12:03.648Z,99.90
2023-02-16T02:13:08.877Z,99.90
2023-02-16T02:14:27.794Z,99.90
2023-02-16T02:15:32.228Z,99.90
2023-02-16T02:16:34.016Z,99.90
2023-02-16T02:17:37.258Z,99.90
2023-02-16T02:18:39.146Z,99.90
2023-02-16T02:20:08.813Z,99.90
2023-02-16T02:22:03.758Z,99.90
2023-02-16T02:23:31.292Z,99.90
2023-02-16T02:25:05.146Z,99.90
2023-02-16T02:26:09.455Z,99.90
2023-02-16T02:27:24.721Z,99.90
2023-02-16T02:28:50.875Z,99.90
2023-02-16T02:30:08.139Z,99.90
2023-02-16T02:31:21.452Z,99.90
2023-02-16T02:32:39.502Z,99.90
2023-02-16T02:34:09.136Z,99.90
2023-02-16T02:35:47.352Z,99.90
2023-02-16T02:37:17.585Z,99.90
2023-02-16T02:38:42.120Z,99.90
2023-02-16T02:39:55.706Z,99.90
2023-02-16T02:41:20.656Z,99.90
2023-02-16T02:43:17.865Z,99.90
2023-02-16T02:44:24.680Z,99.90
2023-02-16T02:45:35.950Z,99.90
2023-02-16T02:46:38.517Z,99.90
2023-02-16T02:47:45.282Z,99.90
2023-02-16T02:48:47.939Z,99.90
2023-02-16T02:49:53.895Z,99.90
2023-02-16T02:51:28.927Z,99.90
2023-02-16T02:52:35.849Z,99.90
2023-02-16T02:53:43.053Z,99.90
2023-02-16T02:55:05.465Z,99.90
2023-02-16T02:56:28.508Z,99.90
2023-02-16T02:58:08.455Z,99.90
2023-02-16T02:59:29.942Z,99.90
2023-02-16T03:00:51.677Z,99.90
2023-02-16T03:01:59.407Z,99.90
2023-02-16T03:03:08.213Z,99.90
2023-02-16T03:04:13.827Z,99.90
2023-02-16T03:05:17.483Z,99.90
2023-02-16T03:06:26.934Z,99.90
2023-02-16T03:07:48.682Z,99.90
2023-02-16T03:08:55.827Z,99.90
2023-02-16T03:10:17.369Z,99.90
2023-02-16T03:11:48.246Z,99.90
2023-02-16T03:12:50.455Z,99.90
2023-02-16T03:14:00.772Z,99.90
2023-02-16T03:15:04.169Z,99.90
2023-02-16T03:16:14.288Z,99.90
2023-02-16T03:17:40.981Z,99.90
2023-02-16T03:19:04.499Z,99.90
2023-02-16T03:20:29.835Z,99.90
2023-02-16T03:21:51.870Z,99.90
2023-02-16T03:23:12.089Z,99.90
2023-02-16T03:24:42.828Z,99.90
2023-02-16T03:26:03.353Z,99.90
2023-02-16T03:27:24.475Z,99.90
2023-02-16T03:28:48.660Z,99.90
2023-02-16T03:29:52.757Z,99.90
2023-02-16T03:30:55.848Z,99.90
2023-02-16T03:31:57.837Z,99.90
2023-02-16T03:32:59.294Z,99.90
2023-02-16T03:34:01.519Z,99.90
2023-02-16T03:35:03.224Z,99.90
2023-02-16T03:36:05.532Z,99.90
2023-02-16T03:37:07.147Z,99.90
2023-02-16T03:38:09.239Z,99.90
2023-02-16T03:39:12.176Z,99.90
2023-02-16T03:40:28.217Z,99.90
2023-02-16T03:41:40.692Z,99.90
2023-02-16T03:42:51.805Z,99.90
2023-02-16T03:43:53.354Z,99.90
2023-02-16T03:44:55.160Z,99.90
2023-02-16T03:45:56.635Z,99.90
2023-02-16T03:46:58.375Z,99.90
2023-02-16T03:47:59.860Z,99.90
2023-02-16T03:49:01.537Z,99.90
2023-02-16T03:50:03.017Z,99.90
2023-02-16T03:51:05.203Z,99.90
2023-02-16T03:52:06.717Z,99.90
2023-02-16T03:53:08.599Z,99.90
2023-02-16T03:54:10.159Z,99.90
2023-02-16T03:55:11.735Z,99.90
2023-02-16T03:56:13.239Z,99.90
2023-02-16T03:57:14.663Z,99.90
2023-02-16T03:58:19.467Z,99.90
2023-02-16T03:59:21.227Z,99.90
2023-02-16T04:00:22.689Z,99.90
2023-02-16T04:01:24.854Z,99.90
2023-02-16T04:02:28.823Z,99.90
2023-02-16T04:03:30.345Z,99.90
2023-02-16T04:04:31.835Z,99.90
2023-02-16T04:05:34.057Z,99.90
2023-02-16T04:06:35.595Z,99.90
2023-02-16T04:07:37.000Z,99.90
2023-02-16T04:08:38.494Z,99.90
2023-02-16T04:09:40.028Z,99.90
2023-02-16T04:10:41.524Z,99.90
2023-02-16T04:12:01.706Z,99.90
2023-02-16T04:13:03.942Z,99.90
2023-02-16T04:14:05.730Z,99.90
2023-02-16T04:15:11.006Z,99.90
2023-02-16T04:16:12.534Z,99.90
2023-02-16T04:17:39.036Z,99.90
2023-02-16T04:18:40.855Z,99.90
2023-02-16T04:19:42.327Z,99.90
2023-02-16T04:20:43.825Z,99.90
2023-02-16T04:21:45.312Z,99.90
2023-02-16T04:22:47.436Z,99.90
2023-02-16T04:23:49.172Z,99.90
2023-02-16T04:24:50.704Z,99.90
2023-02-16T04:25:52.096Z,99.90
2023-02-16T04:26:53.663Z,99.90
2023-02-16T04:27:55.697Z,99.90
2023-02-16T04:28:57.137Z,99.90
2023-02-16T04:29:58.620Z,99.90
2023-02-16T04:31:00.166Z,99.90
2023-02-16T04:32:01.750Z,99.90
2023-02-16T04:33:03.417Z,99.90
2023-02-16T04:34:04.839Z,99.90
2023-02-16T04:35:06.943Z,99.90
2023-02-16T04:36:08.978Z,99.90
2023-02-16T04:37:10.539Z,99.90
2023-02-16T04:38:12.331Z,99.90
2023-02-16T04:39:13.811Z,99.90
2023-02-16T04:40:17.420Z,99.90
2023-02-16T04:41:19.067Z,99.90
2023-02-16T04:42:20.841Z,99.90
2023-02-16T04:43:22.538Z,99.90
2023-02-16T04:44:23.966Z,99.90
2023-02-16T04:45:25.392Z,99.90
2023-02-16T04:46:26.796Z,99.90
2023-02-16T04:47:28.711Z,99.90
2023-02-16T04:48:30.394Z,99.90
2023-02-16T04:49:31.761Z,99.90
2023-02-16T04:50:33.226Z,99.90
2023-02-16T04:51:34.814Z,99.90
2023-02-16T04:52:36.918Z,99.90
2023-02-16T04:53:38.395Z,99.90
2023-02-16T04:54:40.066Z,99.90
2023-02-16T04:55:49.409Z,99.90
2023-02-16T04:56:51.264Z,99.90
2023-02-16T04:57:52.717Z,99.90
2023-02-16T04:58:54.293Z,99.90
2023-02-16T04:59:55.673Z,99.90
2023-02-16T05:00:57.116Z,99.90
2023-02-16T05:01:59.051Z,99.90
2023-02-16T05:03:00.911Z,99.90
2023-02-16T05:04:02.458Z,99.90
2023-02-16T05:05:04.033Z,99.90
2023-02-16T05:06:05.911Z,99.90
2023-02-16T05:07:07.380Z,99.90
2023-02-16T05:08:08.939Z,99.90
2023-02-16T05:09:10.985Z,99.90
2023-02-16T05:10:12.512Z,99.90
2023-02-16T05:11:32.805Z,99.90
2023-02-16T05:12:53.074Z,99.90
2023-02-16T05:14:15.495Z,99.90
2023-02-16T05:15:17.186Z,99.90
2023-02-16T05:16:21.527Z,99.90
2023-02-16T05:17:25.069Z,99.90
2023-02-16T05:18:26.576Z,99.90
2023-02-16T05:19:28.220Z,99.90
2023-02-16T05:20:49.153Z,99.90
2023-02-16T05:21:50.628Z,99.90
2023-02-16T05:22:52.311Z,99.90
2023-02-16T05:23:53.697Z,99.90
2023-02-16T05:24:55.421Z,99.90
2023-02-16T05:25:56.835Z,99.90
2023-02-16T05:26:58.275Z,99.90
2023-02-16T05:28:00.298Z,99.90
2023-02-16T05:29:02.038Z,99.90
2023-02-16T05:30:03.985Z,99.90
2023-02-16T05:31:05.927Z,99.90
2023-02-16T05:32:07.742Z,99.90
2023-02-16T05:33:09.401Z,99.90
2023-02-16T05:34:10.887Z,99.90
2023-02-16T05:35:12.311Z,99.90
2023-02-16T05:36:13.726Z,99.90
2023-02-16T05:37:16.975Z,99.90
2023-02-16T05:38:18.373Z,99.90
2023-02-16T05:39:20.077Z,99.90
2023-02-16T05:40:21.576Z,99.90
2023-02-16T05:41:26.042Z,99.90
2023-02-16T05:42:27.474Z,99.90
2023-02-16T05:43:29.441Z,99.90
2023-02-16T05:44:30.897Z,99.90
2023-02-16T05:45:32.511Z,99.90
2023-02-16T05:46:38.222Z,99.90
2023-02-16T05:47:39.602Z,99.90
2023-02-16T05:48:41.511Z,99.90
2023-02-16T05:49:43.040Z,99.90
2023-02-16T05:50:44.511Z,99.90
2023-02-16T05:51:46.084Z,99.90
2023-02-16T05:52:47.482Z,99.90
2023-02-16T05:53:48.968Z,99.90
2023-02-16T05:54:50.746Z,99.90
2023-02-16T05:55:52.090Z,99.90
2023-02-16T05:56:53.814Z,99.90
2023-02-16T05:57:55.453Z,99.90
2023-02-16T05:58:58.305Z,99.90
2023-02-16T05:59:59.943Z,99.90
2023-02-16T06:01:02.067Z,99.90
2023-02-16T06:02:03.599Z,99.90
2023-02-16T06:03:05.095Z,99.90
2023-02-16T06:04:08.736Z,99.90
2023-02-16T06:05:10.339Z,99.90
2023-02-16T06:06:12.357Z,99.90
2023-02-16T06:07:14.937Z,99.90
2023-02-16T06:08:16.520Z,99.90
2023-02-16T06:09:18.023Z,99.90
2023-02-16T06:10:19.848Z,99.90
2023-02-16T06:11:36.539Z,99.90
2023-02-16T06:12:38.244Z,99.90
2023-02-16T06:13:39.633Z,99.90
2023-02-16T06:14:41.117Z,99.90
2023-02-16T06:15:43.608Z,99.90
2023-02-16T06:16:48.566Z,99.90
2023-02-16T06:17:50.051Z,99.90
2023-02-16T06:18:51.905Z,99.90
2023-02-16T06:19:53.792Z,99.90
2023-02-16T06:20:57.432Z,99.90
2023-02-16T06:21:58.875Z,99.90
2023-02-16T06:23:00.398Z,99.90
2023-02-16T06:24:02.024Z,99.90
2023-02-16T06:25:04.034Z,99.90
2023-02-16T06:26:05.628Z,99.90
2023-02-16T06:27:07.268Z,99.90
2023-02-16T06:28:09.603Z,99.90
2023-02-16T06:29:11.216Z,99.90
2023-02-16T06:30:13.305Z,99.90
2023-02-16T06:31:15.187Z,99.90
2023-02-16T06:32:18.238Z,99.90
2023-02-16T06:33:19.709Z,99.90
2023-02-16T06:34:21.323Z,99.90
2023-02-16T06:35:22.855Z,99.90
2023-02-16T06:36:25.109Z,99.90
2023-02-16T06:37:26.654Z,99.90
2023-02-16T06:38:28.102Z,99.90
2023-02-16T06:39:29.955Z,99.90
2023-02-16T06:40:31.463Z,99.90
2023-02-16T06:41:39.996Z,99.90
2023-02-16T06:42:42.495Z,99.90
2023-02-16T06:43:43.910Z,99.90
2023-02-16T06:44:45.710Z,99.90
2023-02-16T06:45:48.136Z,99.90
2023-02-16T06:46:49.692Z,99.90
2023-02-16T06:47:51.519Z,99.90
2023-02-16T06:48:55.753Z,99.90
2023-02-16T06:49:57.325Z,99.90
2023-02-16T06:51:00.229Z,99.90
2023-02-16T06:52:02.616Z,99.90
2023-02-16T06:53:04.577Z,99.90
2023-02-16T06:54:08.110Z,99.90
2023-02-16T06:55:10.496Z,99.90
2023-02-16T06:56:12.690Z,99.90
2023-02-16T06:57:15.311Z,99.90
2023-02-16T06:58:16.772Z,99.90
2023-02-16T06:59:18.303Z,99.90
2023-02-16T07:00:20.025Z,99.90
2023-02-16T07:01:26.680Z,99.90
2023-02-16T07:02:29.631Z,99.90
2023-02-16T07:03:32.030Z,99.90
2023-02-16T07:04:34.584Z,99.90
2023-02-16T07:05:36.066Z,99.90
2023-02-16T07:06:37.563Z,99.90
2023-02-16T07:07:40.640Z,99.90
2023-02-16T07:08:44.142Z,99.90
2023-02-16T07:09:47.480Z,99.90
2023-02-16T07:10:52.990Z,99.90
2023-02-16T07:11:54.804Z,99.90
2023-02-16T07:12:57.876Z,99.90
2023-02-16T07:14:00.653Z,99.90
2023-02-16T07:15:02.831Z,99.90
2023-02-16T07:16:05.992Z,99.90
2023-02-16T07:17:09.551Z,99.90
2023-02-16T07:18:13.266Z,99.90
2023-02-16T07:19:14.768Z,99.90
2023-02-16T07:20:17.973Z,99.90
2023-02-16T07:21:20.024Z,99.90
2023-02-16T07:22:23.831Z,99.90
2023-02-16T07:23:25.927Z,99.90
2023-02-16T07:24:27.783Z,99.90
2023-02-16T07:25:29.312Z,99.90
2023-02-16T07:26:30.781Z,99.90
2023-02-16T07:27:32.633Z,99.90
2023-02-16T07:28:34.928Z,99.90
2023-02-16T07:29:36.838Z,99.90
2023-02-16T07:30:40.331Z,99.90
2023-02-16T07:31:43.917Z,99.90
2023-02-16T07:32:47.537Z,99.90
2023-02-16T07:33:48.983Z,99.90
2023-02-16T07:34:52.542Z,99.90
2023-02-16T07:35:54.053Z,99.90
2023-02-16T07:36:55.494Z,99.90
2023-02-16T07:37:56.902Z,99.90
2023-02-16T07:38:58.291Z,99.90
2023-02-16T07:39:59.715Z,99.90
2023-02-16T07:41:01.468Z,99.90
2023-02-16T07:42:03.770Z,99.90
2023-02-16T07:43:06.476Z,99.90
2023-02-16T07:44:08.736Z,99.90
2023-02-16T07:45:10.225Z,99.90
2023-02-16T07:46:11.836Z,99.90
2023-02-16T07:47:14.414Z,99.90
2023-02-16T07:48:15.975Z,99.90
2023-02-16T07:49:17.405Z,99.90
2023-02-16T07:50:18.963Z,99.90
2023-02-16T07:51:25.038Z,99.90
2023-02-16T07:52:31.143Z,99.90
2023-02-16T07:53:32.910Z,99.90
2023-02-16T07:54:34.378Z,99.90
2023-02-16T07:55:40.672Z,99.90
2023-02-16T07:56:42.181Z,99.90
2023-02-16T07:57:43.929Z,99.90
2023-02-16T07:58:47.273Z,99.90
2023-02-16T07:59:52.473Z,99.90
2023-02-16T08:01:10.963Z,99.90
2023-02-16T08:02:16.567Z,99.90
2023-02-16T08:03:18.288Z,99.90
2023-02-16T08:04:19.850Z,99.90
2023-02-16T08:05:21.700Z,99.90
2023-02-16T08:06:23.385Z,99.90
2023-02-16T08:07:24.870Z,99.90
2023-02-16T08:08:26.578Z,99.90
2023-02-16T08:09:27.984Z,99.90
2023-02-16T08:10:29.461Z,99.90
2023-02-16T08:11:31.677Z,99.90
2023-02-16T08:12:33.615Z,99.90
2023-02-16T08:13:35.188Z,99.90
2023-02-16T08:14:36.808Z,99.90
2023-02-16T08:15:38.191Z,99.90
2023-02-16T08:16:39.789Z,99.90
2023-02-16T08:17:41.443Z,99.90
2023-02-16T08:18:42.876Z,99.90
2023-02-16T08:19:44.320Z,99.90
2023-02-16T08:21:02.731Z,99.90
2023-02-16T08:22:06.667Z,99.90
2023-02-16T08:23:10.339Z,99.90
2023-02-16T08:24:13.101Z,99.90
2023-02-16T08:25:15.985Z,99.90
2023-02-16T08:26:18.709Z,99.90
2023-02-16T08:27:21.366Z,99.90
2023-02-16T08:28:28.615Z,99.90
2023-02-16T08:29:30.892Z,99.90
2023-02-16T08:30:34.588Z,99.90
2023-02-16T08:31:38.305Z,99.90
2023-02-16T08:32:40.789Z,99.90
2023-02-16T08:33:42.644Z,99.90
2023-02-16T08:34:44.096Z,99.90
2023-02-16T08:35:45.462Z,99.90
2023-02-16T08:36:53.275Z,99.90
2023-02-16T08:37:55.080Z,99.90
2023-02-16T08:38:56.476Z,99.90
2023-02-16T08:40:00.775Z,99.90
2023-02-16T08:41:02.687Z,99.90
2023-02-16T08:42:04.409Z,99.90
2023-02-16T08:43:05.841Z,99.90
2023-02-16T08:44:09.039Z,99.90
2023-02-16T08:45:11.077Z,99.90
2023-02-16T08:46:12.759Z,99.90
2023-02-16T08:47:14.255Z,99.90
2023-02-16T08:48:16.606Z,99.90
2023-02-16T08:49:21.734Z,99.90
2023-02-16T08:50:23.350Z,99.90
2023-02-16T08:51:25.569Z,99.90
2023-02-16T08:52:27.045Z,99.90
2023-02-16T08:53:33.129Z,99.90
2023-02-16T08:54:34.558Z,99.90
2023-02-16T08:55:35.935Z,99.90
2023-02-16T08:56:37.921Z,99.90
2023-02-16T08:57:40.288Z,99.90
2023-02-16T08:58:41.722Z,99.90
2023-02-16T08:59:43.448Z,99.90
2023-02-16T09:00:44.941Z,99.90
2023-02-16T09:01:46.661Z,99.90
2023-02-16T09:02:48.310Z,99.90
2023-02-16T09:03:49.806Z,99.90
2023-02-16T09:04:51.195Z,99.90
2023-02-16T09:05:53.144Z,99.90
2023-02-16T09:06:56.546Z,99.90
2023-02-16T09:07:58.605Z,99.90
2023-02-16T09:09:00.028Z,99.90
2023-02-16T09:10:03.077Z,99.90
2023-02-16T09:11:08.830Z,99.90
2023-02-16T09:12:10.215Z,99.90
2023-02-16T09:13:15.027Z,99.90
2023-02-16T09:14:18.968Z,99.90
2023-02-16T09:15:20.860Z,99.90
2023-02-16T09:16:24.529Z,99.90
2023-02-16T09:17:27.016Z,99.90
2023-02-16T09:18:28.596Z,99.90
2023-02-16T09:19:30.330Z,99.90
2023-02-16T09:20:32.132Z,99.90
2023-02-16T09:21:33.828Z,99.90
2023-02-16T09:22:35.554Z,99.90
2023-02-16T09:23:38.414Z,99.90
2023-02-16T09:24:39.913Z,99.90
2023-02-16T09:25:41.938Z,99.90
2023-02-16T09:26:44.732Z,99.90
2023-02-16T09:27:46.280Z,99.90
2023-02-16T09:28:48.944Z,99.90
2023-02-16T09:29:51.288Z,99.90
2023-02-16T09:30:54.770Z,99.90
2023-02-16T09:31:56.826Z,99.90
2023-02-16T09:33:01.395Z,99.90
2023-02-16T09:34:22.835Z,99.90
2023-02-16T09:35:25.908Z,99.90
2023-02-16T09:36:28.546Z,99.90
2023-02-16T09:37:30.177Z,99.90
2023-02-16T09:38:32.679Z,99.90
2023-02-16T09:39:34.105Z,99.90
2023-02-16T09:40:37.698Z,99.90
2023-02-16T09:42:06.329Z,99.90
2023-02-16T09:43:11.972Z,99.90
2023-02-16T09:44:58.190Z,99.90
2023-02-16T09:46:02.249Z,99.90
2023-02-16T09:47:11.330Z,99.90
2023-02-16T09:48:32.462Z,99.90
2023-02-16T09:49:54.136Z,99.90
2023-02-16T09:50:59.194Z,99.90
2023-02-16T09:52:20.929Z,99.90
2023-02-16T09:53:41.874Z,99.90
2023-02-16T09:54:47.644Z,99.90
2023-02-16T09:56:04.657Z,99.90
2023-02-16T09:57:17.587Z,99.90
2023-02-16T09:58:42.156Z,99.90
2023-02-16T10:00:04.472Z,99.90
2023-02-16T10:01:31.844Z,99.90
2023-02-16T10:03:10.228Z,99.90
2023-02-16T10:04:31.358Z,99.90
2023-02-16T10:06:05.677Z,99.90
2023-02-16T10:07:43.879Z,99.90
2023-02-16T10:08:48.501Z,99.90
2023-02-16T10:09:53.935Z,99.90
2023-02-16T10:11:04.824Z,99.90
2023-02-16T10:12:14.789Z,99.90
2023-02-16T10:13:37.611Z,99.90
2023-02-16T10:14:48.181Z,99.90
2023-02-16T10:15:53.626Z,99.90
2023-02-16T10:17:28.408Z,99.90
2023-02-16T10:18:40.153Z,99.90
2023-02-16T10:19:52.750Z,99.90
2023-02-16T10:20:56.681Z,99.90
2023-02-16T10:22:02.572Z,99.90
2023-02-16T10:23:26.892Z,99.90
2023-02-16T10:24:31.816Z,99.90
2023-02-16T10:25:42.417Z,99.90
2023-02-16T10:26:52.097Z,99.90
2023-02-16T10:28:16.222Z,99.90
2023-02-16T10:29:20.667Z,99.90
2023-02-16T10:30:23.237Z,99.90
2023-02-16T10:31:43.309Z,99.90
2023-02-16T10:33:04.461Z,99.90
2023-02-16T10:34:14.626Z,99.90
2023-02-16T10:35:20.441Z,99.90
2023-02-16T10:36:42.799Z,99.90
2023-02-16T10:38:05.999Z,99.90
2023-02-16T10:39:33.691Z,99.90
2023-02-16T10:40:38.819Z,99.90
2023-02-16T10:41:45.644Z,99.90
2023-02-16T10:43:16.443Z,99.90
2023-02-16T10:44:37.157Z,99.90
2023-02-16T10:45:46.412Z,99.90
2023-02-16T10:46:57.040Z,99.90
2023-02-16T10:47:58.886Z,99.90
2023-02-16T10:49:02.242Z,99.90
2023-02-16T10:50:05.773Z,99.90
2023-02-16T10:51:12.684Z,99.90
2023-02-16T10:52:14.393Z,99.90
2023-02-16T10:53:49.942Z,99.90
2023-02-16T10:54:51.476Z,99.90
2023-02-16T10:55:57.251Z,99.90
2023-02-16T10:57:02.814Z,99.90
2023-02-16T10:58:04.304Z,99.90
2023-02-16T10:59:13.893Z,99.90
2023-02-16T11:00:18.955Z,99.90
2023-02-16T11:01:37.233Z,99.90
2023-02-16T11:02:45.435Z,99.90
2023-02-16T11:03:49.914Z,99.90
2023-02-16T11:04:53.418Z,99.90
2023-02-16T11:05:55.399Z,99.90
2023-02-16T11:07:06.015Z,99.90
2023-02-16T11:08:11.290Z,99.90
2023-02-16T11:09:15.547Z,99.90
2023-02-16T11:10:22.584Z,99.90
2023-02-16T11:11:29.251Z,99.90
2023-02-16T11:12:38.944Z,99.90
2023-02-16T11:13:40.788Z,99.90
2023-02-16T11:14:49.961Z,99.90
2023-02-16T11:15:57.464Z,99.80
2023-02-16T11:17:14.371Z,99.80
2023-02-16T11:18:41.999Z,99.30
2023-02-16T11:20:05.578Z,99.60
2023-02-16T11:21:10.020Z,99.70
2023-02-16T11:22:45.719Z,99.30
2023-02-16T11:23:59.728Z,99.00
2023-02-16T11:25:21.586Z,98.50
2023-02-16T11:26:28.849Z,98.70
2023-02-16T11:27:30.250Z,98.10
2023-02-16T11:28:33.630Z,97.60
2023-02-16T11:29:35.506Z,98.00
2023-02-16T11:30:40.218Z,98.40
2023-02-16T11:31:41.804Z,98.30
2023-02-16T11:32:43.479Z,98.20
2023-02-16T11:34:00.100Z,97.40
2023-02-16T11:35:01.822Z,96.40
2023-02-16T11:36:18.160Z,95.70
2023-02-16T11:37:27.665Z,95.50
2023-02-16T11:38:32.785Z,96.40
2023-02-16T11:39:39.024Z,96.80
2023-02-16T11:40:40.495Z,96.20
2023-02-16T11:41:57.595Z,94.80
2023-02-16T11:43:00.908Z,94.60
2023-02-16T11:44:03.422Z,94.90
2023-02-16T11:45:05.584Z,94.50
2023-02-16T11:46:17.711Z,94.30
2023-02-16T11:47:39.661Z,93.80
2023-02-16T11:48:41.312Z,94.00
2023-02-16T11:49:42.740Z,93.50
2023-02-16T11:51:11.381Z,93.10
2023-02-16T11:52:30.561Z,92.60
2023-02-16T11:53:36.561Z,92.10
2023-02-16T11:54:47.781Z,92.30
2023-02-16T11:55:49.861Z,92.00
2023-02-16T11:57:06.758Z,91.80
2023-02-16T11:58:27.459Z,91.10
2023-02-16T11:59:39.541Z,90.70
2023-02-16T12:00:47.752Z,91.10
2023-02-16T12:01:54.702Z,90.90
2023-02-16T12:03:07.943Z,90.00
2023-02-16T12:04:32.631Z,90.20
2023-02-16T12:06:08.038Z,90.50
2023-02-16T12:07:28.851Z,91.10
2023-02-16T12:08:41.690Z,90.80
2023-02-16T12:10:04.521Z,89.80
2023-02-16T12:11:11.886Z,89.30
2023-02-16T12:12:19.435Z,87.40
2023-02-16T12:13:37.680Z,85.60
2023-02-16T12:14:51.248Z,86.30
2023-02-16T12:16:24.587Z,86.50
2023-02-16T12:17:44.815Z,85.90
2023-02-16T12:19:04.556Z,86.00
2023-02-16T12:20:36.625Z,86.50
2023-02-16T12:21:38.905Z,84.70
2023-02-16T12:22:46.900Z,85.10
2023-02-16T12:24:09.378Z,84.00
2023-02-16T12:25:38.996Z,83.00
2023-02-16T12:26:57.567Z,81.60
2023-02-16T12:28:22.230Z,82.90
2023-02-16T12:29:53.739Z,82.60
2023-02-16T12:31:07.348Z,80.20
2023-02-16T12:32:59.411Z,81.60
2023-02-16T12:34:12.441Z,80.40
2023-02-16T12:35:54.045Z,81.40
2023-02-16T12:37:13.867Z,80.90
2023-02-16T12:38:39.956Z,80.20
2023-02-16T12:40:13.410Z,79.60
2023-02-16T12:41:38.779Z,78.80
2023-02-16T12:42:56.560Z,78.30
2023-02-16T12:44:02.925Z,77.80
2023-02-16T12:45:16.342Z,77.50
2023-02-16T12:46:29.676Z,77.80
2023-02-16T12:47:44.973Z,78.90
2023-02-16T12:48:49.511Z,79.60
2023-02-16T12:50:11.458Z,79.60
2023-02-16T12:51:18.556Z,80.00
2023-02-16T12:52:42.989Z,79.60
2023-02-16T12:54:01.962Z,80.40
2023-02-16T12:55:41.802Z,81.20
2023-02-16T12:56:47.752Z,80.10
2023-02-16T12:58:08.415Z,79.60
2023-02-16T12:59:22.148Z,80.80
2023-02-16T13:00:37.608Z,79.20
2023-02-16T13:01:39.150Z,80.80
2023-02-16T13:02:47.175Z,79.80
2023-02-16T13:04:04.766Z,78.90
2023-02-16T13:05:12.134Z,79.50
2023-02-16T13:06:37.414Z,78.30
2023-02-16T13:07:41.673Z,82.60
2023-02-16T13:08:57.670Z,85.80
2023-02-16T13:10:36.218Z,81.00
2023-02-16T13:11:56.524Z,82.80
2023-02-16T13:13:18.695Z,82.40
2023-02-16T13:14:27.709Z,82.30
2023-02-16T13:15:42.905Z,81.90
2023-02-16T13:16:53.628Z,81.30
2023-02-16T13:18:06.830Z,81.90
2023-02-16T13:19:13.109Z,83.70
2023-02-16T13:20:16.808Z,83.10
2023-02-16T13:21:21.225Z,81.90
2023-02-16T13:22:54.551Z,82.50
2023-02-16T13:23:59.189Z,83.20
2023-02-16T13:25:31.585Z,82.90
2023-02-16T13:26:51.604Z,83.40
2023-02-16T13:27:52.948Z,85.60
2023-02-16T13:29:39.195Z,86.30
2023-02-16T13:31:17.387Z,87.10
2023-02-16T13:32:56.980Z,85.70
2023-02-16T13:34:01.141Z,84.80
2023-02-16T13:35:19.190Z,84.70
2023-02-16T13:36:39.040Z,85.10
2023-02-16T13:38:00.613Z,85.50
2023-02-16T13:39:23.756Z,85.50
2023-02-16T13:40:56.574Z,87.80
2023-02-16T13:42:12.956Z,86.40
2023-02-16T13:43:27.855Z,87.30
2023-02-16T13:44:40.308Z,87.50
2023-02-16T13:45:45.502Z,87.10
2023-02-16T13:46:52.499Z,87.00
2023-02-16T13:47:55.099Z,86.80
2023-02-16T13:48:57.323Z,86.60
2023-02-16T13:50:05.593Z,87.10
2023-02-16T13:51:16.645Z,86.70
2023-02-16T13:52:41.167Z,86.60
2023-02-16T13:53:52.534Z,88.30
2023-02-16T13:54:54.419Z,88.10
2023-02-16T13:56:17.547Z,87.70
2023-02-16T13:57:52.095Z,87.20
2023-02-16T13:58:54.503Z,87.50
2023-02-16T14:00:01.154Z,86.80
2023-02-16T14:01:27.090Z,87.70
2023-02-16T14:02:54.352Z,87.50
2023-02-16T14:03:55.998Z,88.40
2023-02-16T14:04:57.415Z,88.30
2023-02-16T14:06:37.822Z,87.60
2023-02-16T14:07:39.742Z,88.50
2023-02-16T14:08:43.608Z,89.10
2023-02-16T14:09:47.707Z,88.60
2023-02-16T14:10:55.468Z,87.90
2023-02-16T14:11:57.472Z,88.30
2023-02-16T14:12:59.107Z,88.10
2023-02-16T14:14:00.620Z,88.50
2023-02-16T14:15:05.456Z,87.40
2023-02-16T14:16:29.066Z,87.60
2023-02-16T14:17:34.274Z,88.20
2023-02-16T14:18:53.544Z,88.40
2023-02-16T14:20:04.186Z,88.70
2023-02-16T14:21:16.259Z,88.80
2023-02-16T14:22:21.773Z,89.30
2023-02-16T14:23:34.482Z,89.70
2023-02-16T14:24:38.632Z,89.50
2023-02-16T14:25:40.809Z,89.90
2023-02-16T14:27:13.378Z,90.30
2023-02-16T14:28:30.057Z,90.20
2023-02-16T14:29:36.785Z,90.20
2023-02-16T14:30:54.535Z,90.30
2023-02-16T14:32:13.905Z,90.70
2023-02-16T14:33:18.281Z,90.70
2023-02-16T14:34:28.504Z,90.40
2023-02-16T14:35:35.500Z,90.40
2023-02-16T14:37:14.874Z,90.80
2023-02-16T14:38:26.863Z,91.00
2023-02-16T14:39:30.043Z,90.80
2023-02-16T14:40:43.237Z,91.00